Terminal Aerodrome Forecast
Issued by NWS

Home | Current Version | Previous Version | Text Only | Print | Product List | Glossary On
Versions: 1 2 3 4 5 6 7 8 9 10 11 12 13 14
486
FTUS44 KTSA 140524
TAFBVO
TAF
KBVO 140524Z 1406/1506 33003KT P6SM FEW070 SCT120
     FM141500 01006KT P6SM SCT060 BKN120
     FM150000 VRB02KT P6SM BKN050=

USA.gov is the U.S. government's official web portal to all federal, state and local government web resources and services.